createdAt,value
2017-05-24T00:00:58.421Z,101691
2017-05-24T00:03:27.365Z,101692
2017-05-24T00:05:56.360Z,101686
2017-05-24T00:08:25.286Z,101689
2017-05-24T00:10:54.232Z,101681
2017-05-24T00:13:23.203Z,101686
2017-05-24T00:15:52.145Z,101685
2017-05-24T00:18:21.066Z,101680
2017-05-24T00:20:50.017Z,101684
2017-05-24T00:23:18.942Z,101687
2017-05-24T00:25:47.861Z,101682
2017-05-24T00:28:16.811Z,101673
2017-05-24T00:30:45.757Z,101685
2017-05-24T00:33:14.683Z,101680
2017-05-24T00:35:43.656Z,101683
2017-05-24T00:38:12.587Z,101682
2017-05-24T00:40:41.515Z,101689
2017-05-24T00:43:10.473Z,101686
2017-05-24T00:45:39.412Z,101701
2017-05-24T00:48:08.357Z,101693
2017-05-24T00:50:37.305Z,101697
2017-05-24T00:53:06.246Z,101705
2017-05-24T00:55:35.167Z,101694
2017-05-24T00:58:04.140Z,101703
2017-05-24T01:00:33.071Z,101706
2017-05-24T01:03:02.012Z,101702
2017-05-24T01:05:30.987Z,101694
2017-05-24T01:07:59.921Z,101699
2017-05-24T01:10:28.845Z,101704
2017-05-24T01:12:57.802Z,101709
2017-05-24T01:15:26.731Z,101709
2017-05-24T01:17:55.680Z,101706
2017-05-24T01:20:24.653Z,101701
2017-05-24T01:22:53.598Z,101704
2017-05-24T01:25:22.537Z,101709
2017-05-24T01:27:51.505Z,101710
2017-05-24T01:30:20.449Z,101713
2017-05-24T01:32:49.393Z,101710
2017-05-24T01:35:18.369Z,101717
2017-05-24T01:37:47.316Z,101732
2017-05-24T01:40:16.265Z,101730
2017-05-24T01:42:45.243Z,101733
2017-05-24T01:45:14.176Z,101731
2017-05-24T01:47:43.130Z,101732
2017-05-24T01:50:12.100Z,101728
2017-05-24T01:52:41.026Z,101733
2017-05-24T01:55:09.974Z,101725
2017-05-24T01:57:38.922Z,101735
2017-05-24T02:00:07.848Z,101741
2017-05-24T02:02:36.788Z,101735
2017-05-24T02:05:05.749Z,101732
2017-05-24T02:07:34.675Z,101724
2017-05-24T02:10:03.602Z,101742
2017-05-24T02:12:32.577Z,101734
2017-05-24T02:15:01.498Z,101732
2017-05-24T02:17:30.445Z,101738
2017-05-24T02:19:59.416Z,101733
2017-05-24T02:22:28.337Z,101733
2017-05-24T02:24:57.291Z,101730
2017-05-24T02:27:26.269Z,101731
2017-05-24T02:29:55.195Z,101733
2017-05-24T02:32:24.124Z,101727
2017-05-24T02:34:53.089Z,101727
2017-05-24T02:37:22.035Z,101726
2017-05-24T02:39:50.974Z,101715
2017-05-24T02:42:19.923Z,101733
2017-05-24T02:44:48.841Z,101735
2017-05-24T02:47:17.764Z,101725
2017-05-24T02:49:46.718Z,101729
2017-05-24T02:52:15.657Z,101731
2017-05-24T02:54:44.609Z,101727
2017-05-24T02:57:13.582Z,101725
2017-05-24T02:59:42.508Z,101727
2017-05-24T03:02:11.425Z,101736
2017-05-24T03:04:40.382Z,101738
2017-05-24T03:07:09.305Z,101735
2017-05-24T03:09:38.225Z,101727
2017-05-24T03:12:07.178Z,101729
2017-05-24T03:14:36.121Z,101741
2017-05-24T03:17:05.041Z,101744
2017-05-24T03:19:34.017Z,101745
2017-05-24T03:22:02.960Z,101736
2017-05-24T03:24:31.878Z,101723
2017-05-24T03:27:00.956Z,101732
2017-05-24T03:29:29.903Z,101725
2017-05-24T03:31:58.850Z,101738
2017-05-24T03:34:27.811Z,101735
2017-05-24T03:36:56.752Z,101735
2017-05-24T03:39:25.693Z,101732
2017-05-24T03:41:54.652Z,101729
2017-05-24T03:44:23.592Z,101731
2017-05-24T03:46:53.353Z,101733
2017-05-24T03:49:22.311Z,101736
2017-05-24T03:51:51.230Z,101736
2017-05-24T03:54:20.173Z,101738
2017-05-24T03:56:49.231Z,101733
2017-05-24T03:59:18.156Z,101734
2017-05-24T04:01:47.082Z,101733
2017-05-24T04:04:16.057Z,101735
2017-05-24T04:06:45.004Z,101734
2017-05-24T04:09:13.923Z,101736
2017-05-24T04:11:42.904Z,101747
2017-05-24T04:14:11.850Z,101748
2017-05-24T04:16:40.779Z,101745
2017-05-24T04:19:09.743Z,101741
2017-05-24T04:21:38.685Z,101744
2017-05-24T04:24:07.627Z,101752
2017-05-24T04:26:36.574Z,101757
2017-05-24T04:29:05.494Z,101758
2017-05-24T04:31:34.436Z,101758
2017-05-24T04:34:03.420Z,101771
2017-05-24T04:36:32.342Z,101759
2017-05-24T04:39:01.274Z,101759
2017-05-24T04:41:30.229Z,101760
2017-05-24T04:43:59.148Z,101752
2017-05-24T04:46:28.089Z,101754
2017-05-24T04:48:57.113Z,101752
2017-05-24T04:51:26.035Z,101762
2017-05-24T04:53:54.963Z,101755
2017-05-24T04:56:23.931Z,101760
2017-05-24T04:58:52.873Z,101758
2017-05-24T05:01:21.816Z,101754
2017-05-24T05:03:50.787Z,101761
2017-05-24T05:06:19.728Z,101759
2017-05-24T05:08:48.655Z,101757
2017-05-24T05:11:17.992Z,101765
2017-05-24T05:13:46.913Z,101753
2017-05-24T05:16:15.855Z,101764
2017-05-24T05:18:44.818Z,101764
2017-05-24T05:21:13.753Z,101759
2017-05-24T05:23:42.704Z,101758
2017-05-24T05:26:11.668Z,101766
2017-05-24T05:28:40.621Z,101768
2017-05-24T05:31:09.542Z,101771
2017-05-24T05:33:38.512Z,101770
2017-05-24T05:36:07.453Z,101772
2017-05-24T05:38:36.379Z,101772
2017-05-24T05:41:05.365Z,101774
2017-05-24T05:43:34.289Z,101779
2017-05-24T05:46:03.206Z,101779
2017-05-24T05:48:32.156Z,101777
2017-05-24T05:51:01.078Z,101782
2017-05-24T05:53:30.001Z,101790
2017-05-24T05:55:58.974Z,101773
2017-05-24T05:58:27.917Z,101777
2017-05-24T06:00:56.900Z,101781
2017-05-24T06:03:25.869Z,101783
2017-05-24T06:05:54.791Z,101790
2017-05-24T06:08:23.710Z,101793
2017-05-24T06:10:52.682Z,101790
2017-05-24T06:13:21.609Z,101791
2017-05-24T06:15:50.561Z,101794
2017-05-24T06:18:19.553Z,101797
2017-05-24T06:20:48.493Z,101803
2017-05-24T06:23:17.423Z,101801
2017-05-24T06:25:46.412Z,101803
2017-05-24T06:28:15.773Z,101807
2017-05-24T06:30:44.697Z,101821
2017-05-24T06:33:13.668Z,101821
2017-05-24T06:35:42.616Z,101806
2017-05-24T06:38:11.549Z,101816
2017-05-24T06:40:40.521Z,101806
2017-05-24T06:43:09.461Z,101815
2017-05-24T06:45:38.404Z,101820
2017-05-24T06:48:07.381Z,101813
2017-05-24T06:50:36.321Z,101827
2017-05-24T06:53:05.271Z,101823
2017-05-24T06:55:34.237Z,101818
2017-05-24T06:58:03.173Z,101815
2017-05-24T07:00:32.099Z,101815
2017-05-24T07:03:01.066Z,101815
2017-05-24T07:05:30.006Z,101829
2017-05-24T07:07:58.930Z,101823
2017-05-24T07:10:27.893Z,101838
2017-05-24T07:12:56.814Z,101838
2017-05-24T07:15:25.738Z,101833
2017-05-24T07:17:54.706Z,101843
2017-05-24T07:20:23.631Z,101839
2017-05-24T07:22:52.577Z,101832
2017-05-24T07:25:21.549Z,101833
2017-05-24T07:27:50.497Z,101841
2017-05-24T07:30:19.439Z,101830
2017-05-24T07:32:48.394Z,101841
2017-05-24T07:35:17.334Z,101841
2017-05-24T07:37:46.358Z,101851
2017-05-24T07:40:15.321Z,101845
2017-05-24T07:42:44.265Z,101842
2017-05-24T07:45:13.194Z,101841
2017-05-24T07:47:42.141Z,101831
2017-05-24T07:50:11.063Z,101833
2017-05-24T07:52:40.002Z,101836
2017-05-24T07:55:08.950Z,101847
2017-05-24T07:57:37.873Z,101847
2017-05-24T08:00:06.802Z,101843
2017-05-24T08:02:35.758Z,101860
2017-05-24T08:05:04.711Z,101853
2017-05-24T08:07:33.630Z,101862
2017-05-24T08:10:02.602Z,101858
2017-05-24T08:12:31.541Z,101842
2017-05-24T08:15:00.461Z,101846
2017-05-24T08:17:29.430Z,101845
2017-05-24T08:19:58.354Z,101845
2017-05-24T08:22:27.291Z,101852
2017-05-24T08:24:56.261Z,101854
2017-05-24T08:27:25.209Z,101855
2017-05-24T08:29:54.138Z,101848
2017-05-24T08:32:23.098Z,101846
2017-05-24T08:34:52.023Z,101845
2017-05-24T08:37:20.952Z,101847
2017-05-24T08:39:49.913Z,101843
2017-05-24T08:42:18.846Z,101846
2017-05-24T08:44:47.787Z,101839
2017-05-24T08:47:16.757Z,101855
2017-05-24T08:49:45.688Z,101855
2017-05-24T08:52:14.615Z,101875
2017-05-24T08:54:43.577Z,101856
2017-05-24T08:57:12.498Z,101872
2017-05-24T08:59:41.442Z,101858
2017-05-24T09:02:10.421Z,101859
2017-05-24T09:04:39.346Z,101869
2017-05-24T09:07:08.369Z,101860
2017-05-24T09:09:37.327Z,101882
2017-05-24T09:12:06.268Z,101874
2017-05-24T09:14:35.204Z,101882
2017-05-24T09:17:04.181Z,101869
2017-05-24T09:19:33.124Z,101871
2017-05-24T09:22:02.076Z,101884
2017-05-24T09:24:31.034Z,101888
2017-05-24T09:26:59.973Z,101887
2017-05-24T09:29:28.921Z,101898
2017-05-24T09:31:57.900Z,101901
2017-05-24T09:34:26.827Z,101895
2017-05-24T09:36:55.773Z,101887
2017-05-24T09:39:24.746Z,101890
2017-05-24T09:41:53.693Z,101898
2017-05-24T09:44:22.626Z,101904
2017-05-24T09:46:51.600Z,101897
2017-05-24T09:49:20.543Z,101898
2017-05-24T09:51:49.489Z,101902
2017-05-24T09:54:18.442Z,101902
2017-05-24T09:56:47.367Z,101909
2017-05-24T09:59:16.291Z,101920
2017-05-24T10:01:45.265Z,101924
2017-05-24T10:04:14.186Z,101902
2017-05-24T10:06:43.124Z,101898
2017-05-24T10:09:12.093Z,101894
2017-05-24T10:11:41.019Z,101906
2017-05-24T10:14:09.971Z,101905
2017-05-24T10:16:38.927Z,101893
2017-05-24T10:19:07.872Z,101892
2017-05-24T10:21:36.815Z,101911
2017-05-24T10:24:05.788Z,101914
2017-05-24T10:26:34.728Z,101912
2017-05-24T10:29:03.672Z,101907
2017-05-24T10:31:32.623Z,101900
2017-05-24T10:34:01.560Z,101901
2017-05-24T10:36:30.513Z,101903
2017-05-24T10:38:59.476Z,101933
2017-05-24T10:41:34.017Z,101911
2017-05-24T10:44:02.982Z,101911
2017-05-24T10:46:31.920Z,101901
2017-05-24T10:49:00.871Z,101916
2017-05-24T10:51:29.831Z,101923
2017-05-24T10:53:58.758Z,101923
2017-05-24T10:56:27.700Z,101930
2017-05-24T10:58:56.647Z,101932
2017-05-24T11:01:25.592Z,101939
2017-05-24T11:03:54.514Z,101936
2017-05-24T11:06:23.459Z,101926
2017-05-24T11:08:52.397Z,101935
2017-05-24T11:11:21.356Z,101934
2017-05-24T11:13:50.302Z,101939
2017-05-24T11:16:19.231Z,101929
2017-05-24T11:18:48.206Z,101950
2017-05-24T11:21:17.162Z,101939
2017-05-24T11:23:46.105Z,101933
2017-05-24T11:26:15.031Z,101944
2017-05-24T11:28:44.000Z,101928
2017-05-24T11:31:12.945Z,101927
2017-05-24T11:33:41.863Z,101940
2017-05-24T11:36:10.847Z,101949
2017-05-24T11:38:39.785Z,101943
2017-05-24T11:41:08.727Z,101946
2017-05-24T11:43:37.675Z,101942
2017-05-24T11:46:06.599Z,101929
2017-05-24T11:48:35.963Z,101943
2017-05-24T11:51:04.914Z,101928
2017-05-24T11:53:33.859Z,101944
2017-05-24T11:56:02.796Z,101935
2017-05-24T11:58:31.770Z,101932
2017-05-24T12:01:00.715Z,101930
2017-05-24T12:03:29.643Z,101928
2017-05-24T12:05:58.630Z,101924
2017-05-24T12:08:27.553Z,101932
2017-05-24T12:10:56.483Z,101933
2017-05-24T12:13:25.456Z,101939
2017-05-24T12:15:54.402Z,101944
2017-05-24T12:18:23.346Z,101942
2017-05-24T12:20:52.298Z,101942
2017-05-24T12:23:21.214Z,101948
2017-05-24T12:25:50.132Z,101943
2017-05-24T12:28:19.086Z,101956
2017-05-24T12:30:48.033Z,101953
2017-05-24T12:33:16.981Z,101955
2017-05-24T12:35:45.932Z,101952
2017-05-24T12:38:14.869Z,101961
2017-05-24T12:40:43.812Z,101958
2017-05-24T12:43:12.788Z,101965
2017-05-24T12:45:41.733Z,101962
2017-05-24T12:48:10.661Z,101961
2017-05-24T12:50:39.746Z,101963
2017-05-24T12:53:08.690Z,101978
2017-05-24T12:55:37.610Z,101970
2017-05-24T12:58:06.559Z,101964
2017-05-24T13:00:35.491Z,101959
2017-05-24T13:03:04.412Z,101967
2017-05-24T13:05:33.370Z,101971
2017-05-24T13:08:02.315Z,101970
2017-05-24T13:10:31.256Z,101978
2017-05-24T13:13:00.234Z,101982
2017-05-24T13:15:29.166Z,101974
2017-05-24T13:17:58.109Z,101966
2017-05-24T13:20:27.084Z,101981
2017-05-24T13:22:56.010Z,101967
2017-05-24T13:25:24.930Z,101967
2017-05-24T13:27:53.898Z,101976
2017-05-24T13:30:22.843Z,101975
2017-05-24T13:32:51.772Z,101975
2017-05-24T13:35:20.726Z,101971
2017-05-24T13:37:49.664Z,101969
2017-05-24T13:40:18.611Z,101968
2017-05-24T13:42:47.565Z,101972
2017-05-24T13:45:16.512Z,101964
2017-05-24T13:47:45.461Z,101958
2017-05-24T13:50:14.418Z,101961
2017-05-24T13:52:43.344Z,101970
2017-05-24T13:55:12.271Z,101972
2017-05-24T13:57:41.264Z,101960
2017-05-24T14:00:11.554Z,101968
2017-05-24T14:02:40.510Z,101956
2017-05-24T14:05:09.628Z,101961
2017-05-24T14:07:38.588Z,101964
2017-05-24T14:10:07.529Z,101959
2017-05-24T14:12:36.508Z,101960
2017-05-24T14:15:05.438Z,101959
2017-05-24T14:17:34.358Z,101950
2017-05-24T14:20:03.317Z,101959
2017-05-24T14:22:32.289Z,101958
2017-05-24T14:25:01.234Z,101958
2017-05-24T14:27:30.198Z,101958
2017-05-24T14:29:59.142Z,101962
2017-05-24T14:32:28.088Z,101969
2017-05-24T14:34:57.046Z,101956
2017-05-24T14:37:25.978Z,101961
2017-05-24T14:39:54.931Z,101947
2017-05-24T14:42:23.887Z,101951
2017-05-24T14:44:52.811Z,101948
2017-05-24T14:47:21.729Z,101958
2017-05-24T14:49:50.702Z,101957
2017-05-24T14:52:19.646Z,101961
2017-05-24T14:54:48.597Z,101953
2017-05-24T14:57:17.571Z,101958
2017-05-24T14:59:46.497Z,101958
2017-05-24T15:02:15.426Z,101960
2017-05-24T15:04:44.383Z,101954
2017-05-24T15:07:13.315Z,101949
2017-05-24T15:09:42.241Z,101960
2017-05-24T15:12:11.214Z,101963
2017-05-24T15:14:40.157Z,101955
2017-05-24T15:17:09.078Z,101969
2017-05-24T15:19:38.044Z,101960
2017-05-24T15:22:06.963Z,101959
2017-05-24T15:24:35.919Z,101959
2017-05-24T15:27:04.875Z,101958
2017-05-24T15:29:33.820Z,101963
2017-05-24T15:32:02.743Z,101958
2017-05-24T15:34:31.708Z,101958
2017-05-24T15:37:00.649Z,101955
2017-05-24T15:39:29.567Z,101954
2017-05-24T15:41:58.585Z,101955
2017-05-24T15:44:27.527Z,101952
2017-05-24T15:46:56.446Z,101962
2017-05-24T15:49:25.417Z,101955
2017-05-24T15:51:54.335Z,101965
2017-05-24T15:54:23.276Z,101957
2017-05-24T15:56:52.239Z,101960
2017-05-24T15:59:21.176Z,101961
2017-05-24T16:01:50.126Z,101966
2017-05-24T16:04:19.102Z,101958
2017-05-24T16:06:48.029Z,101962
2017-05-24T16:09:16.969Z,101968
2017-05-24T16:11:45.924Z,101966
2017-05-24T16:14:14.863Z,101967
2017-05-24T16:16:43.785Z,101957
2017-05-24T16:19:12.739Z,101964
2017-05-24T16:21:41.682Z,101960
2017-05-24T16:24:10.603Z,101965
2017-05-24T16:26:39.568Z,101959
2017-05-24T16:29:08.512Z,101959
2017-05-24T16:31:37.445Z,101957
2017-05-24T16:34:06.399Z,101959
2017-05-24T16:36:35.349Z,101958
2017-05-24T16:39:04.275Z,101958
2017-05-24T16:41:33.255Z,101958
2017-05-24T16:44:02.198Z,101959
2017-05-24T16:46:31.143Z,101966
2017-05-24T16:49:00.095Z,101968
2017-05-24T16:51:29.099Z,101961
2017-05-24T16:53:58.013Z,101963
2017-05-24T16:56:26.989Z,101960
2017-05-24T16:58:55.949Z,101967
2017-05-24T17:01:24.890Z,101963
2017-05-24T17:03:53.860Z,101974
2017-05-24T17:06:22.805Z,101977
2017-05-24T17:08:51.750Z,101975
2017-05-24T17:11:20.729Z,101969
2017-05-24T17:13:49.654Z,101971
2017-05-24T17:16:18.574Z,101960
2017-05-24T17:18:47.568Z,101959
2017-05-24T17:21:16.517Z,101971
2017-05-24T17:23:45.441Z,101962
2017-05-24T17:26:14.394Z,101970
2017-05-24T17:28:43.333Z,101965
2017-05-24T17:31:12.253Z,101959
2017-05-24T17:33:41.202Z,101962
2017-05-24T17:36:10.144Z,101960
2017-05-24T17:38:39.067Z,101958
2017-05-24T17:41:08.021Z,101958
2017-05-24T17:43:36.955Z,101972
2017-05-24T17:46:05.897Z,101970
2017-05-24T17:48:34.874Z,101967
2017-05-24T17:51:03.793Z,101979
2017-05-24T17:53:32.741Z,101963
2017-05-24T17:56:01.708Z,101968
2017-05-24T17:58:30.622Z,101971
2017-05-24T18:00:59.547Z,101960
2017-05-24T18:03:28.517Z,101965
2017-05-24T18:05:57.444Z,101974
2017-05-24T18:08:26.364Z,101975
2017-05-24T18:10:55.325Z,101982
2017-05-24T18:13:24.422Z,101981
2017-05-24T18:15:53.341Z,101977
2017-05-24T18:18:22.333Z,101977
2017-05-24T18:20:51.316Z,101971
2017-05-24T18:23:20.323Z,101980
2017-05-24T18:25:49.647Z,101972
2017-05-24T18:28:18.567Z,101973
2017-05-24T18:30:47.517Z,101983
2017-05-24T18:33:16.475Z,101984
2017-05-24T18:35:45.416Z,101976
2017-05-24T18:38:14.353Z,101975
2017-05-24T18:40:43.309Z,101970
2017-05-24T18:43:12.258Z,101974
2017-05-24T18:45:41.181Z,101966
2017-05-24T18:48:10.148Z,101979
2017-05-24T18:50:39.070Z,101974
2017-05-24T18:53:08.011Z,101982
2017-05-24T18:55:36.965Z,101991
2017-05-24T18:58:05.898Z,101991
2017-05-24T19:00:34.826Z,101983
2017-05-24T19:03:03.806Z,101993
2017-05-24T19:05:32.763Z,101990
2017-05-24T19:08:01.690Z,101991
2017-05-24T19:10:30.641Z,101988
2017-05-24T19:12:59.571Z,101994
2017-05-24T19:15:28.514Z,101986
2017-05-24T19:17:57.474Z,101987
2017-05-24T19:20:26.409Z,101989
2017-05-24T19:22:55.331Z,101993
2017-05-24T19:25:24.310Z,101996
2017-05-24T19:27:53.239Z,101993
2017-05-24T19:30:22.180Z,101996
2017-05-24T19:32:51.149Z,101998
2017-05-24T19:35:20.100Z,101988
2017-05-24T19:37:49.045Z,101997
2017-05-24T19:40:18.004Z,102004
2017-05-24T19:42:46.922Z,101989
2017-05-24T19:45:15.842Z,101996
2017-05-24T19:47:44.818Z,101998
2017-05-24T19:50:13.733Z,101992
2017-05-24T19:52:42.663Z,102000
2017-05-24T19:55:11.633Z,101992
2017-05-24T19:57:40.562Z,101996
2017-05-24T20:00:09.500Z,101999
2017-05-24T20:02:38.466Z,101997
2017-05-24T20:05:07.414Z,102009
2017-05-24T20:07:36.366Z,102000
2017-05-24T20:10:05.326Z,101998
2017-05-24T20:12:34.253Z,102000
2017-05-24T20:15:03.193Z,101997
2017-05-24T20:17:32.154Z,102007
2017-05-24T20:20:01.080Z,101999
2017-05-24T20:22:30.034Z,102007
2017-05-24T20:24:58.991Z,102013
2017-05-24T20:27:27.939Z,102007
2017-05-24T20:29:56.876Z,102007
2017-05-24T20:32:25.874Z,102014
2017-05-24T20:34:54.798Z,102012
2017-05-24T20:37:23.735Z,102004
2017-05-24T20:39:52.699Z,102008
2017-05-24T20:42:21.662Z,102017
2017-05-24T20:44:50.625Z,102017
2017-05-24T20:47:19.605Z,102011
2017-05-24T20:49:48.533Z,102000
2017-05-24T20:52:17.471Z,102010
2017-05-24T20:54:46.433Z,102006
2017-05-24T20:57:15.359Z,102009
2017-05-24T20:59:44.305Z,102007
2017-05-24T21:02:13.275Z,102007
2017-05-24T21:04:42.285Z,102009
2017-05-24T21:07:11.227Z,102012
2017-05-24T21:09:40.199Z,102007
2017-05-24T21:12:09.132Z,102006
2017-05-24T21:14:38.064Z,102017
2017-05-24T21:17:07.027Z,102023
2017-05-24T21:19:35.965Z,102014
2017-05-24T21:22:04.910Z,102016
2017-05-24T21:24:33.877Z,102027
2017-05-24T21:27:02.821Z,102029
2017-05-24T21:29:31.742Z,102033
2017-05-24T21:32:00.695Z,102022
2017-05-24T21:34:29.639Z,102024
2017-05-24T21:36:58.562Z,102026
2017-05-24T21:39:27.542Z,102034
2017-05-24T21:41:56.501Z,102029
2017-05-24T21:44:25.427Z,102039
2017-05-24T21:46:54.386Z,102030
2017-05-24T21:49:23.313Z,102024
2017-05-24T21:51:52.329Z,102023
2017-05-24T21:54:21.393Z,102025
2017-05-24T21:56:50.318Z,102025
2017-05-24T21:59:19.262Z,102018
2017-05-24T22:01:48.255Z,102028
2017-05-24T22:04:17.185Z,102028
2017-05-24T22:06:46.110Z,102032
2017-05-24T22:09:16.107Z,102024
2017-05-24T22:11:45.052Z,102018
2017-05-24T22:14:13.998Z,102022
2017-05-24T22:16:42.977Z,102018
2017-05-24T22:19:11.921Z,102021
2017-05-24T22:21:40.842Z,102016
2017-05-24T22:24:09.794Z,102020
2017-05-24T22:26:38.734Z,102017
2017-05-24T22:29:08.512Z,102022
2017-05-24T22:31:37.475Z,102028
2017-05-24T22:34:06.408Z,102024
2017-05-24T22:36:35.441Z,102013
2017-05-24T22:39:04.449Z,102016
2017-05-24T22:41:33.654Z,102009
2017-05-24T22:44:02.595Z,102013
2017-05-24T22:46:31.536Z,102025
2017-05-24T22:49:00.580Z,102030
2017-05-24T22:51:29.533Z,102034
2017-05-24T22:53:58.485Z,102029
2017-05-24T22:56:27.447Z,102029
2017-05-24T22:58:56.380Z,102027
2017-05-24T23:01:25.334Z,102021
2017-05-24T23:03:54.262Z,102011
2017-05-24T23:06:23.213Z,102011
2017-05-24T23:08:52.162Z,102009
2017-05-24T23:11:21.111Z,102013
2017-05-24T23:13:50.074Z,102010
2017-05-24T23:16:19.027Z,102015
2017-05-24T23:18:47.958Z,102023
2017-05-24T23:21:16.920Z,102011
2017-05-24T23:23:45.850Z,102020
2017-05-24T23:26:14.830Z,102018
2017-05-24T23:28:43.764Z,102024
2017-05-24T23:31:12.698Z,102028
2017-05-24T23:33:41.673Z,102018
2017-05-24T23:36:10.612Z,102027
2017-05-24T23:38:39.590Z,102027
2017-05-24T23:41:08.524Z,102022
2017-05-24T23:43:37.463Z,102023
2017-05-24T23:46:06.428Z,102019
2017-05-24T23:48:35.359Z,102011
2017-05-24T23:51:04.310Z,102011
2017-05-24T23:53:33.239Z,102028
2017-05-24T23:56:02.188Z,102018
2017-05-24T23:58:31.136Z,102011
